KMLS/MLS METAR and TAF weather

Enter ICAO airport designator
Station Type Date Time Source
KMLS METAR 2022/01/29 12:53 UTC NOAA

KMLS 291253Z AUTO 28007KT 10SM CLR M04/M09 A3005 RMK AO2 SLP199 T10441089


Station Type Date Time Source
KMLS Decoded METAR 2022/01/29 12:53 UTC NOAA

MILES CITY WILEY FIELD, MT, United States (KMLS) 46-26N 105-53W 801M
Jan 29, 2022 - 07:53 AM EST / 2022.01.29 1253 UTC
Wind: from the W (280 degrees) at 8 MPH (7 KT):0
Visibility: 10 mile(s):0
Sky conditions: clear
Temperature: 24.1 F (-4.4 C)
Windchill: 15 F (-9 C):1
Dew Point: 16.0 F (-8.9 C)
Relative Humidity: 70%
Pressure (altimeter): 30.05 in. Hg (1017 hPa)
ob: KMLS 291253Z AUTO 28007KT 10SM CLR M04/M09 A3005 RMK AO2 SLP199 T10441089
cycle: 13

Station Type Date Time Source
KMLS TAF 2022/01/29 12:27 UTC NOAA

TAF KMLS 291124Z 2912/3012 32009KT P6SM SKC WS020/30035KT
FM291600 26010KT P6SM SCT200
FM300300 23009KT P6SM SCT200

Example: see airport list